Time;durP1;ratioP1;P1;durP2;ratioP2;P2;SDS_P1;SDS_P2;PMS_P1;PMS_P2;Temp;Humidity;BMP_temperature;BMP_pressure;BME280_temperature;BME280_humidity;BME280_pressure;Samples;Min_cycle;Max_cycle;Signal;HPM_P1;HPM_P2
2023/06/19 00:00:59;;;;;;;5.72;4.38;;;21.30;99.90;;;;;;4848128;29;20057;-96
2023/06/19 00:03:47;;;;;;;7.07;4.72;;;21.30;99.90;;;;;;4879294;29;20052;-96
2023/06/19 00:06:28;;;;;;;10.70;4.90;;;21.30;99.90;;;;;;4901167;29;20055;-95
2023/06/19 00:09:35;;;;;;;6.88;4.93;;;21.30;99.90;;;;;;4883038;29;20473;-96
2023/06/19 00:12:31;;;;;;;10.90;4.90;;;21.30;99.90;;;;;;4911644;29;20078;-95
2023/06/19 00:17:46;;;;;;;7.35;5.15;;;21.20;99.90;;;;;;4905191;29;20052;-95
2023/06/19 00:20:45;;;;;;;6.63;4.63;;;21.20;99.90;;;;;;4898215;29;20142;-95
2023/06/19 00:23:48;;;;;;;10.55;4.70;;;21.00;99.90;;;;;;4901765;29;20071;-95
2023/06/19 00:26:42;;;;;;;9.18;5.10;;;21.20;99.90;;;;;;4887127;29;20048;-95
2023/06/19 00:29:46;;;;;;;7.22;4.68;;;21.20;99.90;;;;;;4902038;29;20108;-95
2023/06/19 00:32:46;;;;;;;7.65;4.68;;;21.10;99.90;;;;;;4883525;29;20051;-96
2023/06/19 00:35:16;;;;;;;9.18;4.68;;;21.30;99.90;;;;;;4893333;29;20064;-96
2023/06/19 00:37:48;;;;;;;9.07;5.40;;;21.20;99.90;;;;;;4897865;29;20135;-95
2023/06/19 00:40:57;;;;;;;6.68;4.93;;;21.20;99.90;;;;;;4902657;29;20052;-96
2023/06/19 00:43:49;;;;;;;10.88;4.90;;;21.20;99.90;;;;;;4876388;29;20528;-95
2023/06/19 00:46:20;;;;;;;7.82;4.85;;;21.20;99.90;;;;;;4894865;29;20385;-95
2023/06/19 00:49:18;;;;;;;12.38;5.38;;;21.10;99.90;;;;;;4895593;29;20079;-95
2023/06/19 00:52:16;;;;;;;8.57;4.93;;;21.10;99.90;;;;;;4882780;29;20044;-96
2023/06/19 00:55:06;;;;;;;12.30;4.88;;;21.10;99.90;;;;;;4873499;29;20139;-96
2023/06/19 01:01:50;;;;;;;7.53;4.68;;;21.10;99.90;;;;;;4855260;29;20052;-96
2023/06/19 01:04:33;;;;;;;9.65;4.75;;;21.00;99.90;;;;;;4868930;29;20527;-95
2023/06/19 01:07:18;;;;;;;10.13;5.13;;;21.10;99.90;;;;;;4901722;29;20135;-95
2023/06/19 01:10:05;;;;;;;7.88;5.43;;;21.00;99.90;;;;;;4899390;29;20500;-96
2023/06/19 01:13:06;;;;;;;9.13;4.57;;;21.00;99.90;;;;;;4900678;29;20044;-95
2023/06/19 01:16:16;;;;;;;8.88;4.65;;;20.90;99.90;;;;;;4876757;29;20522;-95
2023/06/19 01:19:38;;;;;;;9.23;5.20;;;21.00;99.90;;;;;;4911498;29;20044;-95
2023/06/19 01:22:56;;;;;;;10.05;5.30;;;20.90;99.90;;;;;;4917938;29;20054;-95
2023/06/19 01:26:03;;;;;;;9.80;5.20;;;20.90;99.90;;;;;;4856896;29;20056;-95
2023/06/19 01:28:56;;;;;;;7.43;5.20;;;20.90;99.90;;;;;;4858457;29;20061;-95
2023/06/19 01:31:50;;;;;;;9.02;5.03;;;20.90;99.90;;;;;;4838606;29;20063;-94
2023/06/19 01:35:03;;;;;;;6.45;4.72;;;21.00;99.90;;;;;;4898422;29;20059;-95
2023/06/19 01:37:50;;;;;;;8.13;4.65;;;20.90;99.90;;;;;;4883248;29;20051;-95
2023/06/19 01:40:31;;;;;;;9.18;5.00;;;20.90;99.90;;;;;;4881582;29;20043;-95
2023/06/19 01:46:36;;;;;;;9.13;5.28;;;20.90;99.90;;;;;;4876809;29;20063;-95
2023/06/19 01:49:17;;;;;;;8.40;5.03;;;21.00;99.90;;;;;;4900430;29;20452;-96
2023/06/19 01:52:55;;;;;;;7.53;5.05;;;20.90;99.90;;;;;;4899748;29;20135;-95
2023/06/19 01:55:28;;;;;;;8.50;5.22;;;20.90;99.90;;;;;;4895581;29;20417;-95
2023/06/19 01:58:15;;;;;;;7.00;5.25;;;20.80;99.90;;;;;;4864372;29;20120;-96
2023/06/19 02:01:13;;;;;;;6.72;4.50;;;20.90;99.90;;;;;;4875342;29;20108;-96
2023/06/19 02:03:57;;;;;;;9.02;5.15;;;20.80;99.90;;;;;;4904317;29;20050;-96
2023/06/19 02:06:43;;;;;;;10.60;5.63;;;20.80;99.90;;;;;;4898720;29;20420;-95
2023/06/19 02:09:57;;;;;;;7.88;4.93;;;20.70;99.90;;;;;;4890923;29;20055;-95
2023/06/19 02:12:42;;;;;;;8.32;4.63;;;20.70;99.90;;;;;;4893452;29;20054;-95
2023/06/19 02:15:34;;;;;;;6.95;5.07;;;20.70;99.90;;;;;;4895117;29;20052;-95
2023/06/19 02:18:36;;;;;;;8.63;4.90;;;20.70;99.90;;;;;;4914167;29;20051;-95
2023/06/19 02:21:23;;;;;;;8.75;5.38;;;20.60;99.90;;;;;;4890959;29;20056;-95
2023/06/19 02:24:24;;;;;;;11.88;4.95;;;20.60;99.90;;;;;;4879445;29;20504;-95
2023/06/19 02:27:01;;;;;;;8.02;5.25;;;20.60;99.90;;;;;;4861835;29;20060;-95
2023/06/19 02:29:34;;;;;;;7.45;4.78;;;20.80;99.90;;;;;;4895691;29;20087;-95
2023/06/19 02:32:11;;;;;;;7.93;4.78;;;20.60;99.90;;;;;;4898274;29;20128;-95
2023/06/19 02:35:01;;;;;;;7.43;5.20;;;20.70;99.90;;;;;;4869886;29;20063;-95
2023/06/19 02:37:48;;;;;;;10.07;5.35;;;20.70;99.90;;;;;;4901829;29;20142;-95
2023/06/19 02:40:43;;;;;;;10.38;5.60;;;20.70;99.90;;;;;;4901140;29;20147;-96
2023/06/19 02:43:37;;;;;;;13.38;5.40;;;20.70;99.90;;;;;;4898913;29;20064;-94
2023/06/19 02:47:10;;;;;;;;;;;;;;;;;;;;;
2023/06/19 02:53:07;;;;;;;9.60;5.57;;;20.70;99.90;;;;;;4876031;29;20055;-95
2023/06/19 02:55:59;;;;;;;9.32;5.53;;;20.70;99.90;;;;;;4854573;29;20052;-95
2023/06/19 02:58:31;;;;;;;9.05;5.57;;;20.80;99.90;;;;;;4862014;29;20053;-95
2023/06/19 03:01:41;;;;;;;8.52;4.95;;;20.80;99.90;;;;;;4876097;29;20091;-95
2023/06/19 03:04:25;;;;;;;10.43;5.13;;;20.80;99.90;;;;;;4805945;29;20073;-96
2023/06/19 03:07:18;;;;;;;6.30;4.95;;;20.80;99.90;;;;;;4866671;29;20052;-95
2023/06/19 03:09:51;;;;;;;8.85;5.30;;;20.80;99.90;;;;;;4868507;29;20052;-96
2023/06/19 03:12:41;;;;;;;7.80;5.05;;;20.90;99.90;;;;;;4857754;29;20045;-95
2023/06/19 03:15:43;;;;;;;10.27;5.85;;;20.80;99.90;;;;;;4897542;29;20052;-94
2023/06/19 03:18:31;;;;;;;6.95;4.97;;;20.70;99.90;;;;;;4878870;29;20111;-96
2023/06/19 03:21:18;;;;;;;;;;;;;;;;;;;;;
2023/06/19 03:24:08;;;;;;;9.77;4.63;;;20.90;99.90;;;;;;4880117;29;20531;-95
2023/06/19 03:26:52;;;;;;;9.05;5.68;;;20.90;99.90;;;;;;4870851;29;20394;-95
2023/06/19 03:29:43;;;;;;;9.85;4.95;;;20.90;99.90;;;;;;4869562;29;20514;-96
2023/06/19 03:32:19;;;;;;;12.02;5.65;;;20.90;99.90;;;;;;4895335;29;20080;-96
2023/06/19 03:35:05;;;;;;;6.95;4.72;;;21.40;99.90;;;;;;4872693;29;20116;-96
2023/06/19 03:38:08;;;;;;;7.13;5.40;;;20.70;99.90;;;;;;4880494;29;20056;-95
2023/06/19 03:41:18;;;;;;;10.38;5.22;;;20.80;99.90;;;;;;4883817;29;20524;-96
2023/06/19 03:44:31;;;;;;;7.93;5.50;;;20.80;99.90;;;;;;4838020;29;20398;-95
2023/06/19 03:47:31;;;;;;;;;;;;;;;;;;;;;
2023/06/19 03:50:15;;;;;;;8.40;5.55;;;20.80;99.90;;;;;;4857014;29;20134;-96
2023/06/19 03:52:54;;;;;;;8.77;5.60;;;20.70;99.90;;;;;;4864054;29;20057;-95
2023/06/19 03:55:26;;;;;;;11.93;6.40;;;20.70;99.90;;;;;;4881140;29;20489;-96
2023/06/19 03:58:07;;;;;;;7.53;5.13;;;20.70;99.90;;;;;;4882103;29;20056;-95
2023/06/19 04:01:18;;;;;;;7.25;5.22;;;20.70;99.90;;;;;;4884628;29;20284;-96
2023/06/19 04:03:46;;;;;;;9.70;5.38;;;20.60;99.90;;;;;;4879699;29;20104;-96
2023/06/19 04:06:18;;;;;;;10.50;5.50;;;20.70;99.90;;;;;;4874848;29;20119;-96
2023/06/19 04:09:10;;;;;;;9.23;5.38;;;20.80;99.90;;;;;;4884000;29;20127;-96
2023/06/19 04:11:51;;;;;;;13.63;5.83;;;20.80;99.90;;;;;;4898695;29;20047;-96
2023/06/19 04:17:57;;;;;;;9.85;5.30;;;20.90;99.90;;;;;;4846951;29;20478;-95
2023/06/19 04:21:01;;;;;;;7.20;5.00;;;20.80;99.90;;;;;;4884534;29;20052;-95
2023/06/19 04:23:50;;;;;;;7.65;4.85;;;20.90;99.90;;;;;;4875294;29;20212;-95
2023/06/19 04:26:21;;;;;;;6.65;5.10;;;20.90;99.90;;;;;;4875822;29;20091;-94
2023/06/19 04:29:31;;;;;;;8.13;4.65;;;21.00;99.90;;;;;;4894554;29;20474;-95
2023/06/19 04:32:28;;;;;;;7.05;4.85;;;21.00;99.90;;;;;;4856787;29;20056;-95
2023/06/19 04:35:13;;;;;;;9.38;5.07;;;21.00;99.90;;;;;;4873644;29;20059;-95
2023/06/19 04:37:43;;;;;;;6.65;4.88;;;21.10;99.90;;;;;;4892232;29;20479;-95
2023/06/19 04:40:18;;;;;;;;;;;21.10;99.90;;;;;;4892616;29;20079;-95
2023/06/19 04:43:02;;;;;;;7.68;5.35;;;21.10;99.90;;;;;;4889082;29;20489;-94
2023/06/19 04:45:46;;;;;;;;;;;;;;;;;;;;;
2023/06/19 04:48:40;;;;;;;20.15;5.43;;;21.10;99.90;;;;;;4888404;29;20595;-96
2023/06/19 04:52:22;;;;;;;8.40;4.93;;;21.10;99.90;;;;;;4891376;29;20060;-95
2023/06/19 04:54:21;;;;;;;8.38;5.10;;;21.20;99.90;;;;;;4882319;29;20056;-95
2023/06/19 04:57:07;;;;;;;7.32;5.00;;;21.20;99.90;;;;;;4882489;29;20048;-94
2023/06/19 04:59:55;;;;;;;8.00;4.60;;;21.30;99.90;;;;;;4876313;29;20051;-95
2023/06/19 05:02:37;;;;;;;10.95;5.22;;;21.30;99.90;;;;;;4899382;29;20525;-95
2023/06/19 05:05:16;;;;;;;12.02;4.97;;;21.30;99.90;;;;;;4884760;29;20048;-93
2023/06/19 05:08:16;;;;;;;7.40;4.53;;;21.30;99.90;;;;;;4878399;29;20063;-95
2023/06/19 05:11:02;;;;;;;8.88;4.25;;;21.30;99.90;;;;;;4880493;29;20087;-95
2023/06/19 05:13:35;;;;;;;13.90;3.92;;;21.30;99.90;;;;;;4898099;29;20050;-95
2023/06/19 05:16:25;;;;;;;6.78;3.70;;;21.30;99.90;;;;;;4899111;29;20044;-95
2023/06/19 05:22:21;;;;;;;8.55;3.80;;;21.30;99.90;;;;;;4889457;29;20052;-95
2023/06/19 05:25:53;;;;;;;15.27;4.30;;;21.40;99.90;;;;;;4887080;29;20099;-95
2023/06/19 05:28:11;;;;;;;9.05;4.10;;;21.40;99.90;;;;;;4911855;29;20055;-95
2023/06/19 05:30:45;;;;;;;12.27;4.47;;;21.50;99.90;;;;;;4894259;29;20496;-96
2023/06/19 05:33:25;;;;;;;11.43;3.92;;;21.40;99.90;;;;;;4895248;29;20542;-95
2023/06/19 05:36:36;;;;;;;10.90;4.03;;;21.50;99.90;;;;;;4911957;29;20060;-95
2023/06/19 05:39:11;;;;;;;13.02;4.40;;;21.50;99.90;;;;;;4855694;29;20052;-96
2023/06/19 05:41:50;;;;;;;7.00;3.55;;;21.50;99.90;;;;;;4890918;29;20442;-95
2023/06/19 05:44:19;;;;;;;8.75;4.13;;;21.60;99.90;;;;;;4883835;29;20098;-96
2023/06/19 05:47:32;;;;;;;7.53;3.70;;;21.70;99.90;;;;;;4890435;29;20048;-95
2023/06/19 05:50:59;;;;;;;;;;;21.70;99.90;;;;;;4855770;29;20053;-96
2023/06/19 05:54:00;;;;;;;7.00;4.25;;;21.70;99.90;;;;;;4835334;29;19994;-96
2023/06/19 05:57:18;;;;;;;6.45;4.05;;;21.70;99.90;;;;;;4892027;29;20139;-96
2023/06/19 06:03:41;;;;;;;10.45;4.50;;;22.10;99.90;;;;;;4877939;29;20135;-95
2023/06/19 06:06:26;;;;;;;10.23;4.63;;;22.20;99.90;;;;;;4829144;29;20585;-95
2023/06/19 06:09:12;;;;;;;7.75;4.82;;;22.20;99.90;;;;;;4881776;29;20048;-95
2023/06/19 06:11:41;;;;;;;9.25;4.57;;;22.20;99.90;;;;;;4881207;29;20478;-96
2023/06/19 06:14:39;;;;;;;16.42;5.45;;;22.10;99.90;;;;;;4883148;29;20055;-96
2023/06/19 06:17:18;;;;;;;10.48;6.05;;;22.00;99.90;;;;;;4870621;29;20115;-95
2023/06/19 06:20:42;;;;;;;11.18;5.43;;;21.90;99.90;;;;;;4879880;29;20052;-96
2023/06/19 06:23:36;;;;;;;8.90;5.78;;;21.90;99.90;;;;;;4877699;29;20123;-96
2023/06/19 06:26:36;;;;;;;9.02;5.60;;;21.90;99.90;;;;;;4882069;29;20067;-96
2023/06/19 06:29:21;;;;;;;8.00;5.00;;;21.80;99.90;;;;;;4904212;29;20131;-96
2023/06/19 06:32:25;;;;;;;12.70;5.85;;;21.70;99.90;;;;;;4882656;29;20063;-95
2023/06/19 06:36:04;;;;;;;10.00;5.97;;;21.80;99.90;;;;;;4886197;29;20576;-95
2023/06/19 06:38:20;;;;;;;9.90;6.72;;;21.80;99.90;;;;;;4888525;29;20063;-96
2023/06/19 06:40:57;;;;;;;8.20;6.35;;;21.80;99.90;;;;;;4880911;29;20063;-95
2023/06/19 06:43:53;;;;;;;8.75;5.68;;;21.70;99.90;;;;;;4879425;29;20049;-96
2023/06/19 06:46:48;;;;;;;32.20;4.60;;;21.80;99.90;;;;;;4884570;29;20115;-96
2023/06/19 06:49:43;;;;;;;7.95;5.20;;;21.80;99.90;;;;;;4897587;29;20047;-95
2023/06/19 06:52:59;;;;;;;9.55;4.95;;;21.90;99.90;;;;;;4846678;29;20056;-95
2023/06/19 06:55:57;;;;;;;12.02;4.75;;;22.10;99.90;;;;;;4895960;29;20502;-96
2023/06/19 06:58:41;;;;;;;8.43;3.85;;;21.90;99.90;;;;;;4885173;29;20468;-95
2023/06/19 07:04:13;;;;;;;4.97;3.72;;;21.90;99.90;;;;;;4875618;29;20100;-96
2023/06/19 07:06:54;;;;;;;6.50;3.70;;;21.70;99.90;;;;;;4898673;29;20441;-96
2023/06/19 07:09:26;;;;;;;5.20;3.60;;;21.90;99.90;;;;;;4880865;29;20051;-95
2023/06/19 07:12:16;;;;;;;3.97;2.88;;;21.60;99.90;;;;;;4896339;29;20039;-95
2023/06/19 07:15:09;;;;;;;5.95;3.10;;;21.50;99.90;;;;;;4880467;29;20064;-96
2023/06/19 07:18:25;;;;;;;5.20;3.00;;;21.50;99.90;;;;;;4892351;29;20052;-95
2023/06/19 07:21:57;;;;;;;6.35;4.80;;;21.40;99.90;;;;;;4890337;29;20190;-96
2023/06/19 07:24:45;;;;;;;10.82;6.13;;;21.30;99.90;;;;;;4831469;29;20052;-96
2023/06/19 07:27:11;;;;;;;10.50;6.27;;;21.30;99.90;;;;;;4894852;29;20059;-94
2023/06/19 07:29:40;;;;;;;12.40;6.90;;;21.20;99.90;;;;;;4883355;29;20296;-96
2023/06/19 07:32:06;;;;;;;9.45;6.10;;;21.10;99.90;;;;;;4879705;29;20063;-96
2023/06/19 07:34:32;;;;;;;11.30;6.13;;;21.10;99.90;;;;;;4891012;29;20115;-96
2023/06/19 07:36:58;;;;;;;10.50;7.18;;;21.10;99.90;;;;;;4901131;29;20119;-96
2023/06/19 07:39:26;;;;;;;11.85;7.78;;;21.10;99.90;;;;;;4899671;29;20090;-96
2023/06/19 07:41:52;;;;;;;10.90;8.50;;;21.10;99.90;;;;;;4895750;29;20096;-95
2023/06/19 07:44:18;;;;;;;13.25;8.98;;;21.00;99.90;;;;;;4901354;29;20046;-96
2023/06/19 07:47:02;;;;;;;14.55;10.00;;;21.00;99.90;;;;;;4891827;29;20088;-96
2023/06/19 07:49:46;;;;;;;20.70;9.95;;;20.80;99.90;;;;;;4893973;29;20053;-95
2023/06/19 07:52:13;;;;;;;18.67;10.23;;;20.80;99.90;;;;;;4899538;23;20067;-89
2023/06/19 07:54:51;;;;;;;17.27;10.63;;;20.80;99.90;;;;;;4863584;29;20049;-89
2023/06/19 07:57:17;;;;;;;19.35;9.73;;;20.80;99.90;;;;;;4876110;29;20144;-89
2023/06/19 07:59:44;;;;;;;14.32;10.30;;;20.80;99.90;;;;;;4863171;29;20097;-90
2023/06/19 08:02:10;;;;;;;14.18;10.15;;;20.80;99.90;;;;;;4867847;29;20557;-94
2023/06/19 08:04:39;;;;;;;14.98;10.95;;;20.90;99.90;;;;;;4883112;29;20515;-94
2023/06/19 08:07:05;;;;;;;12.68;9.75;;;20.90;99.90;;;;;;4876868;29;20051;-94
2023/06/19 08:09:31;;;;;;;15.15;10.93;;;20.90;99.90;;;;;;4871688;29;20044;-95
2023/06/19 08:12:02;;;;;;;17.30;11.25;;;20.90;99.90;;;;;;4860359;29;20392;-95
2023/06/19 08:14:28;;;;;;;13.65;10.27;;;21.00;99.90;;;;;;4854308;29;20060;-93
2023/06/19 08:16:54;;;;;;;15.25;9.20;;;20.90;99.90;;;;;;4869620;29;20052;-94
2023/06/19 08:19:38;;;;;;;15.70;8.90;;;21.00;99.90;;;;;;4868274;29;20063;-96
2023/06/19 08:22:42;;;;;;;13.75;8.57;;;21.00;99.90;;;;;;4866033;29;20048;-96
2023/06/19 08:25:08;;;;;;;18.33;8.10;;;21.00;99.90;;;;;;4859763;29;20457;-92
2023/06/19 08:27:35;;;;;;;14.10;8.20;;;21.00;99.90;;;;;;4864305;29;20047;-96
2023/06/19 08:30:00;;;;;;;12.38;6.68;;;21.00;99.90;;;;;;4865350;29;20045;-95
2023/06/19 08:32:26;;;;;;;13.55;6.20;;;20.90;99.90;;;;;;4874568;29;20508;-96
2023/06/19 08:34:52;;;;;;;11.38;6.00;;;20.90;99.90;;;;;;4871464;29;20072;-94
2023/06/19 08:37:18;;;;;;;16.05;6.00;;;20.80;99.90;;;;;;4870408;29;20060;-92
2023/06/19 08:39:44;;;;;;;14.60;6.35;;;20.80;99.90;;;;;;4870168;29;20127;-95
2023/06/19 08:42:10;;;;;;;11.75;6.85;;;20.80;99.90;;;;;;4875305;29;20139;-92
2023/06/19 08:44:36;;;;;;;14.68;6.55;;;20.90;99.90;;;;;;4865009;29;20039;-93
2023/06/19 08:47:06;;;;;;;11.32;6.30;;;21.00;99.90;;;;;;4876330;29;20056;-96
2023/06/19 08:49:34;;;;;;;11.25;7.13;;;21.10;99.90;;;;;;4870506;29;20146;-95
2023/06/19 08:52:43;;;;;;;17.30;6.85;;;21.20;99.90;;;;;;4884138;29;20203;-96
2023/06/19 08:55:10;;;;;;;14.45;5.60;;;21.30;99.90;;;;;;4855625;29;20064;-95
2023/06/19 08:57:38;;;;;;;14.27;5.78;;;21.30;99.90;;;;;;4830266;29;20056;-95
2023/06/19 09:00:07;;;;;;;9.63;5.18;;;21.20;99.90;;;;;;4828991;29;20197;-95
2023/06/19 09:02:37;;;;;;;11.27;5.25;;;21.30;99.90;;;;;;4832866;29;20112;-95
2023/06/19 09:05:14;;;;;;;8.02;4.53;;;21.30;99.90;;;;;;4833677;29;20045;-94
2023/06/19 09:07:40;;;;;;;12.30;4.75;;;21.40;99.90;;;;;;4818893;29;20073;-94
2023/06/19 09:10:15;;;;;;;9.20;4.70;;;21.40;99.90;;;;;;4828772;29;20057;-94
2023/06/19 09:12:44;;;;;;;10.95;3.70;;;21.50;99.90;;;;;;4845020;29;20391;-95
2023/06/19 09:15:16;;;;;;;9.05;2.95;;;21.60;99.90;;;;;;4830956;29;20056;-95
2023/06/19 09:17:45;;;;;;;10.25;3.70;;;21.70;99.90;;;;;;4834746;29;20414;-94
2023/06/19 09:20:13;;;;;;;7.35;3.22;;;21.70;99.90;;;;;;4842695;29;20041;-94
2023/06/19 09:22:40;;;;;;;15.25;3.90;;;21.70;99.90;;;;;;4833415;29;20053;-95
2023/06/19 09:25:09;;;;;;;7.38;3.60;;;21.70;99.90;;;;;;4838897;29;20054;-94
2023/06/19 09:27:35;;;;;;;8.77;3.47;;;21.70;99.90;;;;;;4838486;29;20141;-93
2023/06/19 09:30:02;;;;;;;9.00;3.20;;;21.80;99.90;;;;;;4840172;29;20045;-95
2023/06/19 09:32:31;;;;;;;5.10;3.63;;;21.90;99.90;;;;;;4842284;29;20044;-94
2023/06/19 09:34:58;;;;;;;8.85;3.10;;;22.00;99.90;;;;;;4824566;29;20041;-95
2023/06/19 09:37:31;;;;;;;6.72;3.22;;;22.00;99.90;;;;;;4832460;29;20060;-95
2023/06/19 09:40:09;;;;;;;6.45;3.35;;;22.20;99.90;;;;;;4827283;29;20045;-95
2023/06/19 09:42:42;;;;;;;7.47;3.15;;;22.20;99.90;;;;;;4827973;29;20128;-94
2023/06/19 09:45:33;;;;;;;5.53;2.72;;;22.30;99.90;;;;;;4836286;29;20049;-94
2023/06/19 09:47:58;;;;;;;5.25;2.97;;;22.30;99.90;;;;;;4832253;29;20056;-95
2023/06/19 09:50:34;;;;;;;7.38;2.83;;;22.60;99.90;;;;;;4837184;29;20053;-95
2023/06/19 09:53:00;;;;;;;5.57;3.25;;;22.50;99.90;;;;;;4830856;29;20403;-94
2023/06/19 09:55:30;;;;;;;7.30;3.10;;;22.60;99.90;;;;;;4856582;29;20255;-95
2023/06/19 09:58:15;;;;;;;;;;;;;;;;;;;;;
2023/06/19 10:00:41;;;;;;;5.07;3.17;;;22.40;99.90;;;;;;4886020;23;20052;-87
2023/06/19 10:04:25;;;;;;;10.77;4.28;;;22.30;99.90;;;;;;4912172;29;20055;-90
2023/06/19 10:06:54;;;;;;;9.98;4.07;;;22.10;99.90;;;;;;4896662;29;20709;-88
2023/06/19 10:09:40;;;;;;;7.95;4.22;;;22.10;99.90;;;;;;4878813;29;20060;-88
2023/06/19 10:12:12;;;;;;;6.75;4.63;;;22.10;99.90;;;;;;4894966;29;20059;-88
2023/06/19 10:14:56;;;;;;;10.27;5.10;;;22.10;99.90;;;;;;4879023;29;20644;-88
2023/06/19 10:17:22;;;;;;;14.73;4.63;;;22.10;99.90;;;;;;4891975;29;20048;-87
2023/06/19 10:19:51;;;;;;;12.25;4.68;;;22.10;99.90;;;;;;4909027;29;20895;-87
2023/06/19 10:22:35;;;;;;;10.15;4.93;;;22.20;99.90;;;;;;4877765;29;20103;-87
2023/06/19 10:25:01;;;;;;;11.18;5.28;;;22.10;99.90;;;;;;4899171;29;20050;-87
2023/06/19 10:27:26;;;;;;;7.82;5.72;;;22.10;99.90;;;;;;4880654;29;20048;-93
2023/06/19 10:29:54;;;;;;;12.85;6.05;;;22.00;99.90;;;;;;4884738;29;20111;-87
2023/06/19 10:32:20;;;;;;;13.95;5.30;;;21.90;99.90;;;;;;4874254;29;20060;-87
2023/06/19 10:34:48;;;;;;;11.45;5.88;;;21.70;99.90;;;;;;4885438;29;20048;-86
2023/06/19 10:37:15;;;;;;;11.55;5.63;;;21.60;99.90;;;;;;4896437;29;20424;-87
2023/06/19 10:39:42;;;;;;;11.75;6.63;;;21.60;99.90;;;;;;4876219;29;20464;-88
2023/06/19 10:42:09;;;;;;;8.40;6.22;;;21.50;99.90;;;;;;4895110;29;20505;-87
2023/06/19 10:44:35;;;;;;;9.60;6.63;;;21.50;99.90;;;;;;4868841;29;20043;-87
2023/06/19 10:47:01;;;;;;;9.43;6.50;;;21.50;99.90;;;;;;4878487;29;20037;-87
2023/06/19 10:49:28;;;;;;;11.93;7.13;;;21.40;99.90;;;;;;4888154;29;20487;-87
2023/06/19 10:51:58;;;;;;;11.20;7.28;;;21.50;99.90;;;;;;4877851;29;20064;-87
2023/06/19 10:54:25;;;;;;;11.02;6.97;;;21.70;99.90;;;;;;4874623;29;20123;-87
2023/06/19 10:56:51;;;;;;;13.30;6.97;;;21.90;99.90;;;;;;4878225;29;20083;-87
2023/06/19 10:59:18;;;;;;;8.90;6.55;;;22.20;99.90;;;;;;4894325;29;20044;-86
2023/06/19 11:01:46;;;;;;;12.55;7.00;;;22.40;99.90;;;;;;4876652;29;20064;-86
2023/06/19 11:04:14;;;;;;;8.20;7.10;;;22.70;99.90;;;;;;4891931;29;20139;-87
2023/06/19 11:06:41;;;;;;;8.82;6.70;;;22.80;99.90;;;;;;4876030;29;20095;-85
2023/06/19 11:09:09;;;;;;;9.35;6.32;;;22.80;99.90;;;;;;4873600;29;20076;-85
2023/06/19 11:11:40;;;;;;;9.68;6.90;;;23.10;99.90;;;;;;4884225;29;20135;-85
2023/06/19 11:14:07;;;;;;;13.00;7.18;;;23.30;99.90;;;;;;4904507;29;20031;-85
2023/06/19 11:16:33;;;;;;;10.88;6.78;;;23.40;99.90;;;;;;4902881;29;20039;-85
2023/06/19 11:19:00;;;;;;;9.30;7.07;;;23.50;99.90;;;;;;4881591;29;20104;-86
2023/06/19 11:21:34;;;;;;;13.70;6.75;;;23.40;99.90;;;;;;4897379;29;20052;-85
2023/06/19 11:24:01;;;;;;;9.63;6.45;;;23.30;99.90;;;;;;4896864;29;20440;-85
2023/06/19 11:26:27;;;;;;;13.20;7.65;;;23.20;99.90;;;;;;4904377;29;20076;-85
2023/06/19 11:28:53;;;;;;;15.10;7.43;;;23.20;99.90;;;;;;4891558;29;20055;-85
2023/06/19 11:31:26;;;;;;;9.90;6.93;;;23.30;99.90;;;;;;4901320;29;20044;-85
2023/06/19 11:33:57;;;;;;;;;;;23.60;99.90;;;;;;4903634;29;20088;-85
2023/06/19 11:36:24;;;;;;;9.88;6.28;;;23.60;99.90;;;;;;4870624;29;20014;-84
2023/06/19 11:38:52;;;;;;;8.88;6.30;;;23.80;99.90;;;;;;4881529;29;20131;-85
2023/06/19 11:41:27;;;;;;;15.27;7.65;;;23.90;99.90;;;;;;4896160;29;20457;-85
2023/06/19 11:44:00;;;;;;;22.98;7.45;;;23.90;99.90;;;;;;4883826;29;20508;-85
2023/06/19 11:46:30;;;;;;;14.55;7.90;;;24.00;99.90;;;;;;4884757;29;20223;-85
2023/06/19 11:49:10;;;;;;;11.73;7.63;;;24.00;99.90;;;;;;4885380;29;20135;-85
2023/06/19 11:51:36;;;;;;;11.07;7.50;;;24.20;99.90;;;;;;4886180;29;20059;-85
2023/06/19 11:54:05;;;;;;;12.32;6.95;;;24.30;99.90;;;;;;4895834;29;20043;-85
2023/06/19 11:56:30;;;;;;;12.70;7.88;;;24.40;99.90;;;;;;4887661;29;20044;-85
2023/06/19 11:58:56;;;;;;;11.57;7.22;;;24.40;99.90;;;;;;4892701;29;20115;-86
2023/06/19 12:01:26;;;;;;;15.23;8.13;;;24.30;99.90;;;;;;4896182;29;20063;-85
2023/06/19 12:03:52;;;;;;;11.57;6.68;;;24.20;99.90;;;;;;4894091;29;20200;-85
2023/06/19 12:06:18;;;;;;;12.73;8.00;;;24.40;99.90;;;;;;4881525;29;20131;-84
2023/06/19 12:08:44;;;;;;;11.77;7.95;;;24.60;99.90;;;;;;4880434;29;20044;-85
2023/06/19 12:11:10;;;;;;;11.40;7.00;;;24.70;99.90;;;;;;4894606;29;20055;-85
2023/06/19 12:13:36;;;;;;;12.50;7.32;;;24.70;99.90;;;;;;4895324;29;20044;-85
2023/06/19 12:16:03;;;;;;;12.30;7.68;;;24.70;99.90;;;;;;4896150;29;20048;-85
2023/06/19 12:18:29;;;;;;;13.13;8.40;;;24.60;99.90;;;;;;4895531;29;20048;-85
2023/06/19 12:20:55;;;;;;;16.13;7.40;;;24.50;99.90;;;;;;4896279;29;20040;-85
2023/06/19 12:23:21;;;;;;;12.70;8.48;;;24.50;99.90;;;;;;4895638;29;20051;-85
2023/06/19 12:25:46;;;;;;;15.70;7.50;;;24.50;99.90;;;;;;4868619;29;20075;-85
2023/06/19 12:28:16;;;;;;;11.05;6.35;;;24.50;99.90;;;;;;4878962;29;20048;-85
2023/06/19 12:30:42;;;;;;;9.50;6.60;;;24.60;99.90;;;;;;4895482;29;20052;-85
2023/06/19 12:33:08;;;;;;;12.15;7.50;;;24.60;99.90;;;;;;4895143;29;20118;-85
2023/06/19 12:35:33;;;;;;;13.00;7.00;;;24.60;99.90;;;;;;4880090;29;20044;-85
2023/06/19 12:37:59;;;;;;;9.50;6.95;;;24.60;99.90;;;;;;4895993;29;20048;-85
2023/06/19 12:40:25;;;;;;;14.30;8.52;;;24.60;99.90;;;;;;4894002;29;20052;-84
2023/06/19 12:42:50;;;;;;;16.63;9.23;;;24.50;99.90;;;;;;4891163;29;20461;-85
2023/06/19 12:45:16;;;;;;;13.32;8.30;;;24.50;99.90;;;;;;4887646;29;20048;-84
2023/06/19 12:47:42;;;;;;;10.85;7.10;;;24.60;99.90;;;;;;4894835;29;20040;-85
2023/06/19 12:50:08;;;;;;;13.75;6.65;;;24.70;99.90;;;;;;4895646;29;20052;-85
2023/06/19 12:52:33;;;;;;;14.85;6.95;;;24.70;99.90;;;;;;4894984;29;20063;-85
2023/06/19 12:55:01;;;;;;;11.32;7.60;;;24.70;99.90;;;;;;4878674;29;20056;-85
2023/06/19 12:57:27;;;;;;;12.55;6.63;;;24.70;99.90;;;;;;4893901;29;20081;-84
2023/06/19 12:59:52;;;;;;;9.98;6.22;;;24.70;99.90;;;;;;4872936;29;20056;-85
2023/06/19 13:02:18;;;;;;;14.40;6.45;;;24.80;99.90;;;;;;4894769;29;20564;-85
2023/06/19 13:04:44;;;;;;;13.65;6.57;;;25.00;99.90;;;;;;4879112;29;20048;-86
2023/06/19 13:07:10;;;;;;;12.60;6.22;;;25.00;99.90;;;;;;4879534;29;20168;-86
2023/06/19 13:09:35;;;;;;;15.75;6.68;;;25.00;99.90;;;;;;4878420;29;20390;-85
2023/06/19 13:12:02;;;;;;;13.45;6.50;;;24.90;99.90;;;;;;4879515;29;20051;-85
2023/06/19 13:14:28;;;;;;;14.13;7.50;;;24.90;99.90;;;;;;4894963;29;20056;-85
2023/06/19 13:16:53;;;;;;;16.25;7.07;;;24.80;99.90;;;;;;4894753;29;20469;-85
2023/06/19 13:19:19;;;;;;;10.18;6.07;;;25.00;99.90;;;;;;4895051;29;20048;-85
2023/06/19 13:21:45;;;;;;;13.25;6.80;;;25.00;99.90;;;;;;4878514;29;20119;-84
2023/06/19 13:24:11;;;;;;;8.93;6.32;;;25.00;99.90;;;;;;4894530;29;20496;-85
2023/06/19 13:26:36;;;;;;;11.93;6.35;;;25.10;99.90;;;;;;4879424;29;20461;-85
2023/06/19 13:29:02;;;;;;;12.05;6.20;;;25.10;99.90;;;;;;4878072;29;20480;-85
2023/06/19 13:31:28;;;;;;;9.95;5.75;;;25.10;99.90;;;;;;4879633;29;20071;-85
2023/06/19 13:33:54;;;;;;;8.50;5.97;;;25.30;99.90;;;;;;4894508;29;20496;-85
2023/06/19 13:36:20;;;;;;;10.43;5.40;;;25.40;99.90;;;;;;4893835;29;20075;-84
2023/06/19 13:38:46;;;;;;;11.73;6.25;;;25.50;99.90;;;;;;4894803;29;20492;-84
2023/06/19 13:41:12;;;;;;;11.68;6.25;;;25.60;99.90;;;;;;4893460;29;20433;-84
2023/06/19 13:43:40;;;;;;;12.43;6.75;;;25.60;99.90;;;;;;4883681;29;20047;-85
2023/06/19 13:46:06;;;;;;;9.77;5.13;;;25.40;99.90;;;;;;4877155;29;20067;-84
2023/06/19 13:48:32;;;;;;;14.68;5.22;;;25.40;99.90;;;;;;4879671;29;20103;-85
2023/06/19 13:51:00;;;;;;;8.98;4.35;;;25.40;99.90;;;;;;4893016;29;20079;-86
2023/06/19 13:53:28;;;;;;;10.55;5.97;;;25.50;99.90;;;;;;4894801;29;20402;-85
2023/06/19 13:55:54;;;;;;;7.20;4.60;;;25.40;99.90;;;;;;4893951;29;20040;-85
2023/06/19 13:58:20;;;;;;;7.82;4.60;;;25.30;99.90;;;;;;4870098;29;20791;-85
2023/06/19 14:00:45;;;;;;;8.40;4.93;;;25.30;99.90;;;;;;4877712;29;20490;-86
2023/06/19 14:03:12;;;;;;;9.77;5.35;;;25.30;99.90;;;;;;4893663;29;20087;-85
2023/06/19 14:05:38;;;;;;;10.20;4.60;;;25.20;99.90;;;;;;4885675;29;20039;-85
2023/06/19 14:08:04;;;;;;;11.70;4.65;;;25.20;99.90;;;;;;4887161;29;20043;-85
2023/06/19 14:10:30;;;;;;;12.30;4.93;;;25.10;99.90;;;;;;4892539;29;20466;-85
2023/06/19 14:12:56;;;;;;;14.60;5.28;;;25.10;99.90;;;;;;4878720;29;20493;-86
2023/06/19 14:15:22;;;;;;;8.25;5.43;;;25.10;99.90;;;;;;4893390;29;20048;-86
2023/06/19 14:17:47;;;;;;;6.63;4.38;;;25.00;99.90;;;;;;4893788;29;20086;-86